»·PEaware :: ASA365 KSMF-KSEA

ASA365 :: KSMF-KSEA

FLIGHT INFORMATION

Flight Status: Arrived
Operator:
Alaska Airlines
More flights by this operator :: More flights under this callsign
Pilot: Alex S. (7186)
Aircraft: BOEING 737-900
(B739)
More flights by this aircraft type
Origin: KSMF Sacramento Intl
United States
Destination: KSEA Seattle-Tacoma Intl
United States
More flights between these airports :: More routes between these airports
Route: RBL LMT BTG HAWKZ6
File this flight plan on PilotEdge
Remarks: PBN / A1B1C1D1S1S2 DOF / 180107 REG / N307AS EET / KZSE0027 OPR / ASA PER / D RMK / TCAS SIMBRIEF
Altitude:
(Current/Filed)
36,000ft
Speed:
(Current/Filed)
457kts
Departed: 06-Jan-18 06:01 PM
Arrived: 06-Jan-18 07:33 PM
Distance/Time
Traveled:
526nm/1:32
Distance/Time
To Go:
Arrived

Flight Plot

Page will automatically refresh every two minutes.

Flight plan parsing failed; only flown route is shown


Map Options




Map Legend


Flown Route
Filed Route
Departure Airport
Arrival Airport
Navaid (VOR, NDB)
Fix

Horizontal Profiles

Position Reports

Time Latitude Longitude Heading Altitude Ground
Speed
06-Jan-18 17:25 38.696314 -121.593032 195 35ft 0kts
06-Jan-18 17:26 38.696314 -121.593032 195 35ft 0kts
06-Jan-18 17:27 38.696314 -121.593032 195 35ft 0kts
06-Jan-18 17:28 38.696314 -121.593032 195 35ft 0kts
06-Jan-18 17:29 38.692510 -121.594017 215 35ft 0kts
06-Jan-18 17:30 38.692510 -121.594017 215 35ft 0kts
06-Jan-18 17:31 38.692510 -121.594017 215 36ft 0kts
06-Jan-18 17:32 38.692510 -121.594017 215 36ft 0kts
06-Jan-18 17:33 38.692510 -121.594017 215 36ft 0kts
06-Jan-18 17:34 38.692510 -121.594017 215 36ft 0kts
06-Jan-18 17:35 38.692510 -121.594017 215 36ft 0kts
06-Jan-18 17:36 38.692510 -121.594017 215 36ft 0kts
06-Jan-18 17:37 38.692510 -121.594017 215 36ft 0kts
06-Jan-18 17:38 38.692510 -121.594017 215 36ft 0kts
06-Jan-18 17:39 38.692510 -121.594017 215 36ft 0kts
06-Jan-18 17:40 38.692510 -121.594017 215 36ft 0kts
06-Jan-18 17:41 38.692510 -121.594017 215 36ft 0kts
06-Jan-18 17:42 38.692510 -121.594017 215 36ft 0kts
06-Jan-18 17:43 38.692510 -121.594017 215 36ft 0kts
06-Jan-18 17:44 38.692510 -121.594017 215 36ft 0kts
06-Jan-18 17:45 38.692510 -121.594017 215 36ft 0kts
06-Jan-18 17:46 38.692510 -121.594017 215 36ft 0kts
06-Jan-18 17:47 38.692510 -121.594017 215 36ft 0kts
06-Jan-18 17:48 38.692510 -121.594017 215 36ft 0kts
06-Jan-18 17:49 38.692510 -121.594017 215 36ft 0kts
06-Jan-18 17:50 38.692510 -121.594017 215 36ft 0kts
06-Jan-18 17:51 38.692510 -121.594017 215 36ft 0kts
06-Jan-18 17:52 38.692510 -121.594017 215 36ft 0kts
06-Jan-18 17:53 38.692510 -121.594017 215 36ft 0kts
06-Jan-18 17:54 38.692510 -121.594017 215 36ft 0kts
06-Jan-18 17:55 38.692510 -121.594017 215 36ft 0kts
06-Jan-18 17:56 38.692622 -121.593914 215 36ft 0kts
06-Jan-18 17:57 38.692622 -121.593914 215 36ft 0kts
06-Jan-18 17:58 38.692622 -121.593914 215 36ft 0kts
06-Jan-18 17:59 38.692620 -121.593916 215 36ft 0kts
06-Jan-18 18:00 38.692618 -121.593918 215 36ft 0kts
06-Jan-18 18:01 38.693415 -121.594360 326 36ft 5kts
06-Jan-18 18:02 38.693077 -121.596691 225 36ft 20kts
06-Jan-18 18:03 38.693401 -121.599060 34 36ft 15kts
06-Jan-18 18:04 38.699081 -121.598595 1 36ft 25kts
06-Jan-18 18:05 38.705225 -121.598481 0 36ft 18kts
06-Jan-18 18:06 38.707159 -121.600976 232 36ft 7kts
06-Jan-18 18:07 38.683274 -121.601483 181 526ft 166kts
06-Jan-18 18:08 38.676173 -121.651490 311 2698ft 226kts
06-Jan-18 18:09 38.733628 -121.701428 342 5937ft 269kts
06-Jan-18 18:10 38.808011 -121.730091 342 9511ft 287kts
06-Jan-18 18:11 38.886569 -121.760418 341 12518ft 313kts
06-Jan-18 18:12 38.979614 -121.796379 342 13822ft 379kts
06-Jan-18 18:13 39.082310 -121.836162 343 16505ft 389kts
06-Jan-18 18:14 39.187545 -121.876911 343 18828ft 399kts
06-Jan-18 18:15 39.295385 -121.918908 343 20747ft 412kts
06-Jan-18 18:16 39.406344 -121.962263 343 22441ft 423kts
06-Jan-18 18:17 39.520419 -122.007011 343 23859ft 433kts
06-Jan-18 18:18 39.636968 -122.052909 343 25109ft 441kts
06-Jan-18 18:19 39.755081 -122.099544 343 26181ft 447kts
06-Jan-18 18:20 39.874093 -122.146615 344 27323ft 444kts
06-Jan-18 18:21 39.991586 -122.193430 344 28459ft 440kts
06-Jan-18 18:22 40.110039 -122.226253 2 29530ft 434kts
06-Jan-18 18:23 40.228933 -122.203956 9 30474ft 432kts
06-Jan-18 18:24 40.347494 -122.176022 9 31205ft 434kts
06-Jan-18 18:25 40.466706 -122.147379 9 31908ft 435kts
06-Jan-18 18:26 40.585886 -122.118582 8 32539ft 436kts
06-Jan-18 18:27 40.705626 -122.089424 8 33120ft 437kts
06-Jan-18 18:28 40.824873 -122.060230 8 33749ft 435kts
06-Jan-18 18:29 40.943838 -122.031003 8 34327ft 434kts
06-Jan-18 18:30 41.062574 -122.001708 8 35019ft 428kts
06-Jan-18 18:31 41.176693 -121.973484 7 36258ft 413kts
06-Jan-18 18:32 41.279189 -121.948021 7 36268ft 426kts
06-Jan-18 18:33 41.409124 -121.915608 7 36271ft 427kts
06-Jan-18 18:34 41.525795 -121.886408 7 36272ft 427kts
06-Jan-18 18:35 41.642463 -121.857112 7 36273ft 426kts
06-Jan-18 18:36 41.759276 -121.827651 7 36273ft 426kts
06-Jan-18 18:37 41.875668 -121.798258 7 36273ft 426kts
06-Jan-18 18:38 41.992484 -121.768585 7 36271ft 426kts
06-Jan-18 18:39 42.108896 -121.738903 6 36270ft 426kts
06-Jan-18 18:40 42.226062 -121.745056 349 36270ft 421kts
06-Jan-18 18:41 42.341638 -121.770715 349 36271ft 421kts
06-Jan-18 18:42 42.457127 -121.796875 349 36269ft 421kts
06-Jan-18 18:43 42.573123 -121.823266 349 36268ft 421kts
06-Jan-18 18:44 42.688520 -121.849689 349 36279ft 420kts
06-Jan-18 18:45 42.803856 -121.876236 348 36283ft 421kts
06-Jan-18 18:46 42.919573 -121.903013 348 36285ft 421kts
06-Jan-18 18:47 43.034964 -121.929822 348 36287ft 421kts
06-Jan-18 18:48 43.150352 -121.956737 348 36288ft 421kts
06-Jan-18 18:49 43.266184 -121.983858 348 36288ft 421kts
06-Jan-18 18:50 43.381864 -122.011040 348 36289ft 423kts
06-Jan-18 18:51 43.497855 -122.038412 348 36300ft 423kts
06-Jan-18 18:52 43.614030 -122.065932 348 36301ft 422kts
06-Jan-18 18:53 43.729790 -122.093459 348 36301ft 422kts
06-Jan-18 18:54 43.845531 -122.121090 348 36301ft 422kts
06-Jan-18 18:55 43.960842 -122.148727 348 36302ft 422kts
06-Jan-18 18:56 44.076553 -122.176584 347 36303ft 422kts
06-Jan-18 18:57 44.193544 -122.204833 347 36296ft 423kts
06-Jan-18 18:58 44.309319 -122.232912 347 36310ft 423kts
06-Jan-18 18:59 44.425739 -122.261271 347 36320ft 424kts
06-Jan-18 19:00 44.541811 -122.289646 347 36327ft 424kts
06-Jan-18 19:01 44.658380 -122.318251 346 36329ft 424kts
06-Jan-18 19:02 44.773919 -122.346736 346 36338ft 425kts
06-Jan-18 19:03 44.891082 -122.375739 346 36344ft 425kts
06-Jan-18 19:04 45.007975 -122.404794 346 36344ft 426kts
06-Jan-18 19:05 45.124459 -122.433872 346 36350ft 425kts
06-Jan-18 19:06 45.241422 -122.463179 346 36352ft 425kts
06-Jan-18 19:07 45.357890 -122.492498 346 36355ft 425kts
06-Jan-18 19:08 45.474481 -122.521884 346 36354ft 426kts
06-Jan-18 19:09 45.591508 -122.551591 345 36358ft 426kts
06-Jan-18 19:10 45.708128 -122.581373 345 36350ft 426kts
06-Jan-18 19:11 45.825370 -122.610597 346 36349ft 427kts
06-Jan-18 19:12 45.922793 -122.634709 346 36354ft 427kts
06-Jan-18 19:13 46.038988 -122.663641 345 36354ft 421kts
06-Jan-18 19:14 46.154625 -122.689641 347 33998ft 420kts
06-Jan-18 19:15 46.270862 -122.712397 347 30426ft 424kts
06-Jan-18 19:16 46.390015 -122.726190 354 26365ft 438kts
06-Jan-18 19:17 46.514069 -122.729379 353 22995ft 443kts
06-Jan-18 19:18 46.634230 -122.733518 353 19756ft 422kts
06-Jan-18 19:19 46.742919 -122.737447 352 18857ft 359kts
06-Jan-18 19:20 46.832577 -122.683770 31 17328ft 362kts
06-Jan-18 19:21 46.910455 -122.593298 32 15468ft 351kts
06-Jan-18 19:22 46.991638 -122.538021 9 14311ft 311kts
06-Jan-18 19:23 47.074087 -122.502768 8 12797ft 305kts
06-Jan-18 19:24 47.154172 -122.486547 2 11544ft 297kts
06-Jan-18 19:25 47.235319 -122.473005 2 10269ft 284kts
06-Jan-18 19:26 47.309339 -122.461901 3 9123ft 272kts
06-Jan-18 19:27 47.382331 -122.454411 357 7984ft 256kts
06-Jan-18 19:28 47.453149 -122.455345 358 6883ft 250kts
06-Jan-18 19:29 47.520365 -122.455306 359 5970ft 229kts
06-Jan-18 19:30 47.584919 -122.454356 359 5002ft 229kts
06-Jan-18 19:31 47.648118 -122.454001 359 4000ft 221kts
06-Jan-18 19:32 47.685004 -122.404284 93 4018ft 219kts
06-Jan-18 19:33 47.668374 -122.321267 143 3991ft 210kts
06-Jan-18 19:34 47.614516 -122.306114 181 3351ft 188kts
06-Jan-18 19:35 47.564780 -122.306891 180 2393ft 167kts
06-Jan-18 19:36 47.518777 -122.307309 179 1520ft 163kts
06-Jan-18 19:37 47.476474 -122.307679 180 710ft 143kts
06-Jan-18 19:38 47.445939 -122.307930 183 441ft 41kts
06-Jan-18 19:39 47.443580 -122.306459 41 441ft 9kts
06-Jan-18 19:40 47.446866 -122.306311 0 441ft 19kts
06-Jan-18 19:41 47.447699 -122.304057 109 441ft 5kts
06-Jan-18 19:42 47.448168 -122.303201 40 441ft 0kts
06-Jan-18 19:43 47.448168 -122.303201 40 441ft 0kts
06-Jan-18 19:44 47.448168 -122.303201 40 441ft 0kts
06-Jan-18 19:45 47.448168 -122.303201 40 441ft 0kts

Navigation Log

Ident Type
Flight plan parsing failed, navigation log unavailable